createdAt,value
2022-12-15T00:02:17.505Z,100.00
2022-12-15T00:05:02.705Z,100.00
2022-12-15T00:07:47.801Z,100.00
2022-12-15T00:10:33.839Z,100.00
2022-12-15T00:13:18.970Z,100.00
2022-12-15T00:16:07.783Z,100.00
2022-12-15T00:18:53.320Z,100.00
2022-12-15T00:21:38.939Z,100.00
2022-12-15T00:24:24.609Z,100.00
2022-12-15T00:27:09.806Z,100.00
2022-12-15T00:29:54.921Z,100.00
2022-12-15T00:32:41.404Z,100.00
2022-12-15T00:35:27.138Z,100.00
2022-12-15T00:38:12.288Z,100.00
2022-12-15T00:40:39.006Z,100.00
2022-12-15T00:43:06.130Z,100.00
2022-12-15T00:45:51.267Z,100.00
2022-12-15T00:48:17.799Z,100.00
2022-12-15T00:50:54.028Z,100.00
2022-12-15T00:53:41.340Z,100.00
2022-12-15T00:56:27.704Z,100.00
2022-12-15T00:59:13.680Z,100.00
2022-12-15T01:01:59.304Z,100.00
2022-12-15T01:04:46.228Z,100.00
2022-12-15T01:07:31.646Z,100.00
2022-12-15T01:10:16.965Z,100.00
2022-12-15T01:13:02.765Z,100.00
2022-12-15T01:15:47.869Z,100.00
2022-12-15T01:18:34.527Z,100.00
2022-12-15T01:21:05.100Z,100.00
2022-12-15T01:23:33.423Z,100.00
2022-12-15T01:26:00.922Z,100.00
2022-12-15T01:28:28.370Z,100.00
2022-12-15T01:30:55.552Z,100.00
2022-12-15T01:33:23.225Z,100.00
2022-12-15T01:36:01.828Z,100.00
2022-12-15T01:38:29.200Z,100.00
2022-12-15T01:41:00.192Z,100.00
2022-12-15T01:43:31.330Z,100.00
2022-12-15T01:46:11.947Z,100.00
2022-12-15T01:48:49.205Z,100.00
2022-12-15T01:51:31.531Z,100.00
2022-12-15T01:54:12.005Z,100.00
2022-12-15T01:56:46.512Z,100.00
2022-12-15T01:59:19.711Z,100.00
2022-12-15T02:01:49.875Z,100.00
2022-12-15T02:04:19.993Z,100.00
2022-12-15T02:06:46.710Z,100.00
2022-12-15T02:09:14.008Z,100.00
2022-12-15T02:11:51.033Z,100.00
2022-12-15T02:14:42.173Z,100.00
2022-12-15T02:17:21.876Z,100.00
2022-12-15T02:20:06.755Z,100.00
2022-12-15T02:22:42.301Z,100.00
2022-12-15T02:25:22.564Z,100.00
2022-12-15T02:28:24.216Z,100.00
2022-12-15T02:31:34.332Z,100.00
2022-12-15T02:34:09.105Z,100.00
2022-12-15T02:36:39.673Z,100.00
2022-12-15T02:39:06.630Z,100.00
2022-12-15T02:41:44.978Z,100.00
2022-12-15T02:44:27.182Z,100.00
2022-12-15T02:47:18.934Z,100.00
2022-12-15T02:50:13.492Z,100.00
2022-12-15T02:52:51.562Z,100.00
2022-12-15T02:55:56.970Z,100.00
2022-12-15T02:58:51.690Z,100.00
2022-12-15T03:01:27.748Z,100.00
2022-12-15T03:03:56.965Z,100.00
2022-12-15T03:06:26.706Z,100.00
2022-12-15T03:08:53.351Z,100.00
2022-12-15T03:11:20.125Z,100.00
2022-12-15T03:13:46.750Z,100.00
2022-12-15T03:16:17.325Z,100.00
2022-12-15T03:18:44.025Z,100.00
2022-12-15T03:21:10.796Z,100.00
2022-12-15T03:23:37.511Z,100.00
2022-12-15T03:26:04.555Z,100.00
2022-12-15T03:28:31.163Z,100.00
2022-12-15T03:30:57.772Z,100.00
2022-12-15T03:33:24.411Z,100.00
2022-12-15T03:35:53.576Z,100.00
2022-12-15T03:38:21.110Z,100.00
2022-12-15T03:40:47.849Z,100.00
2022-12-15T03:43:14.458Z,100.00
2022-12-15T03:45:41.084Z,100.00
2022-12-15T03:48:07.878Z,100.00
2022-12-15T03:50:34.518Z,100.00
2022-12-15T03:53:04.076Z,100.00
2022-12-15T03:55:31.025Z,100.00
2022-12-15T03:57:59.335Z,100.00
2022-12-15T04:00:26.775Z,100.00
2022-12-15T04:02:54.266Z,100.00
2022-12-15T04:05:34.951Z,100.00
2022-12-15T04:08:02.332Z,100.00
2022-12-15T04:10:34.391Z,100.00
2022-12-15T04:13:09.598Z,100.00
2022-12-15T04:15:41.161Z,100.00
2022-12-15T04:18:10.727Z,100.00
2022-12-15T04:20:38.897Z,100.00
2022-12-15T04:23:07.907Z,100.00
2022-12-15T04:25:54.398Z,100.00
2022-12-15T04:28:40.157Z,100.00
2022-12-15T04:31:34.444Z,100.00
2022-12-15T04:34:22.664Z,100.00
2022-12-15T04:37:10.276Z,100.00
2022-12-15T04:39:59.294Z,100.00
2022-12-15T04:42:44.970Z,100.00
2022-12-15T04:45:32.224Z,100.00
2022-12-15T04:48:18.350Z,100.00
2022-12-15T04:51:03.714Z,100.00
2022-12-15T04:53:49.033Z,100.00
2022-12-15T04:56:34.813Z,100.00
2022-12-15T04:59:20.450Z,100.00
2022-12-15T05:02:06.775Z,100.00
2022-12-15T05:04:53.619Z,100.00
2022-12-15T05:07:39.047Z,100.00
2022-12-15T05:10:25.485Z,100.00
2022-12-15T05:13:10.803Z,100.00
2022-12-15T05:15:55.968Z,100.00
2022-12-15T05:18:41.626Z,100.00
2022-12-15T05:21:26.777Z,100.00
2022-12-15T05:24:11.874Z,100.00
2022-12-15T05:26:57.856Z,100.00
2022-12-15T05:29:43.089Z,100.00
2022-12-15T05:32:09.902Z,100.00
2022-12-15T05:34:38.111Z,100.00
2022-12-15T05:37:06.740Z,100.00
2022-12-15T05:39:33.885Z,100.00
2022-12-15T05:42:00.480Z,100.00
2022-12-15T05:44:28.476Z,100.00
2022-12-15T05:46:55.403Z,100.00
2022-12-15T05:49:23.374Z,100.00
2022-12-15T05:51:50.386Z,100.00
2022-12-15T05:54:19.086Z,100.00
2022-12-15T05:56:47.089Z,100.00
2022-12-15T05:59:17.468Z,100.00
2022-12-15T06:01:44.223Z,100.00
2022-12-15T06:04:15.186Z,100.00
2022-12-15T06:06:42.350Z,100.00
2022-12-15T06:09:11.037Z,100.00
2022-12-15T06:11:43.297Z,100.00
2022-12-15T06:14:10.296Z,100.00
2022-12-15T06:16:44.201Z,100.00
2022-12-15T06:19:17.241Z,100.00
2022-12-15T06:21:43.982Z,100.00
2022-12-15T06:24:10.675Z,100.00
2022-12-15T06:26:39.136Z,100.00
2022-12-15T06:29:08.694Z,100.00
2022-12-15T06:31:37.075Z,100.00
2022-12-15T06:34:10.934Z,100.00
2022-12-15T06:36:37.682Z,100.00
2022-12-15T06:39:06.650Z,100.00
2022-12-15T06:41:33.436Z,100.00
2022-12-15T06:44:00.920Z,100.00
2022-12-15T06:46:30.332Z,100.00
2022-12-15T06:48:57.811Z,100.00
2022-12-15T06:51:25.669Z,100.00
2022-12-15T06:53:57.302Z,100.00
2022-12-15T06:56:32.698Z,100.00
2022-12-15T06:59:00.335Z,100.00
2022-12-15T07:01:27.607Z,100.00
2022-12-15T07:03:55.176Z,100.00
2022-12-15T07:06:22.694Z,100.00
2022-12-15T07:08:56.749Z,100.00
2022-12-15T07:11:23.863Z,100.00
2022-12-15T07:13:54.733Z,100.00
2022-12-15T07:16:22.903Z,100.00
2022-12-15T07:18:51.976Z,100.00
2022-12-15T07:21:18.688Z,100.00
2022-12-15T07:23:54.669Z,100.00
2022-12-15T07:26:22.399Z,100.00
2022-12-15T07:28:49.098Z,100.00
2022-12-15T07:31:18.210Z,100.00
2022-12-15T07:33:44.975Z,100.00
2022-12-15T07:36:11.860Z,100.00
2022-12-15T07:38:38.473Z,100.00
2022-12-15T07:41:07.535Z,100.00
2022-12-15T07:43:35.328Z,100.00
2022-12-15T07:46:03.366Z,100.00
2022-12-15T07:48:30.362Z,100.00
2022-12-15T07:51:05.037Z,100.00
2022-12-15T07:53:34.576Z,100.00
2022-12-15T07:56:10.268Z,100.00
2022-12-15T07:58:38.074Z,100.00
2022-12-15T08:01:07.299Z,100.00
2022-12-15T08:03:35.998Z,100.00
2022-12-15T08:06:07.114Z,100.00
2022-12-15T08:08:35.046Z,100.00
2022-12-15T08:11:10.059Z,98.22
2022-12-15T08:14:01.890Z,94.65
2022-12-15T08:16:25.535Z,93.15
2022-12-15T08:18:52.602Z,91.76
2022-12-15T08:21:19.347Z,90.83
2022-12-15T08:23:46.183Z,88.96
2022-12-15T08:26:16.060Z,92.45
2022-12-15T08:28:43.955Z,93.47
2022-12-15T08:31:17.106Z,92.03
2022-12-15T08:33:45.113Z,92.07
2022-12-15T08:36:14.061Z,88.45
2022-12-15T08:38:42.225Z,91.22
2022-12-15T08:41:08.909Z,89.58
2022-12-15T08:43:41.178Z,88.92
2022-12-15T08:46:13.100Z,91.41
2022-12-15T08:48:40.521Z,91.15
2022-12-15T08:51:08.078Z,90.95
2022-12-15T08:53:34.646Z,90.67
2022-12-15T08:56:06.426Z,90.62
2022-12-15T08:58:33.584Z,88.74
2022-12-15T09:01:04.697Z,90.21
2022-12-15T09:03:31.937Z,89.55
2022-12-15T09:06:04.148Z,90.00
2022-12-15T09:08:33.004Z,87.01
2022-12-15T09:11:00.639Z,88.48
2022-12-15T09:13:28.506Z,83.99
2022-12-15T09:16:09.862Z,81.46
2022-12-15T09:18:37.812Z,83.01
2022-12-15T09:21:06.569Z,86.26
2022-12-15T09:23:35.223Z,83.71
2022-12-15T09:26:04.755Z,83.32
2022-12-15T09:28:34.683Z,79.53
2022-12-15T09:31:06.872Z,75.85
2022-12-15T09:33:34.310Z,72.69
2022-12-15T09:36:01.678Z,71.79
2022-12-15T09:38:28.344Z,74.74
2022-12-15T09:40:55.510Z,77.43
2022-12-15T09:43:46.405Z,76.74
2022-12-15T09:46:30.209Z,79.53
2022-12-15T09:48:59.912Z,78.01
2022-12-15T09:51:37.519Z,77.29
2022-12-15T09:54:04.914Z,74.19
2022-12-15T09:56:50.260Z,69.27
2022-12-15T09:59:26.237Z,66.50
2022-12-15T10:02:22.528Z,66.40
2022-12-15T10:05:16.336Z,63.86
2022-12-15T10:07:50.507Z,63.72
2022-12-15T10:10:20.109Z,64.51
2022-12-15T10:15:50.653Z,72.08
2022-12-15T10:18:33.728Z,69.78
2022-12-15T10:21:02.486Z,67.42
2022-12-15T10:23:29.666Z,62.94
2022-12-15T10:26:19.328Z,59.94
2022-12-15T10:29:10.415Z,57.16
2022-12-15T10:31:43.631Z,49.41
2022-12-15T10:34:23.846Z,50.33
2022-12-15T10:36:52.327Z,49.38
2022-12-15T10:39:21.140Z,49.12
2022-12-15T10:42:21.173Z,51.42
2022-12-15T10:44:50.871Z,48.05
2022-12-15T10:47:17.546Z,46.58
2022-12-15T10:49:44.478Z,43.32
2022-12-15T10:52:32.265Z,42.80
2022-12-15T10:54:58.881Z,42.67
2022-12-15T10:57:29.722Z,42.02
2022-12-15T11:00:15.227Z,42.11
2022-12-15T11:02:43.167Z,44.94
2022-12-15T11:05:15.729Z,45.05
2022-12-15T11:07:51.851Z,41.70
2022-12-15T11:10:28.328Z,40.35
2022-12-15T11:13:14.757Z,40.03
2022-12-15T11:15:56.563Z,38.08
2022-12-15T11:18:29.246Z,36.78
2022-12-15T11:21:24.867Z,39.20
2022-12-15T11:24:13.301Z,37.01
2022-12-15T11:26:42.886Z,36.40
2022-12-15T11:29:21.259Z,37.33
2022-12-15T11:31:48.963Z,36.57
2022-12-15T11:34:18.771Z,40.28
2022-12-15T11:37:08.481Z,41.96
2022-12-15T11:39:43.181Z,42.97
2022-12-15T11:42:12.862Z,42.81
2022-12-15T11:44:51.365Z,42.54
2022-12-15T11:47:25.599Z,41.36
2022-12-15T11:50:06.222Z,39.59
2022-12-15T11:52:38.761Z,39.39
2022-12-15T11:55:14.122Z,40.03
2022-12-15T11:58:06.411Z,39.62
2022-12-15T12:00:43.518Z,40.21
2022-12-15T12:03:28.727Z,45.31
2022-12-15T12:06:10.615Z,47.99
2022-12-15T12:08:43.373Z,51.10
2022-12-15T12:11:20.420Z,53.13
2022-12-15T12:14:12.060Z,57.01
2022-12-15T12:16:59.425Z,57.07
2022-12-15T12:19:41.783Z,55.26
2022-12-15T12:22:20.670Z,54.59
2022-12-15T12:25:01.230Z,54.42
2022-12-15T12:27:43.108Z,56.42
2022-12-15T12:30:15.748Z,55.38
2022-12-15T12:33:09.836Z,54.78
2022-12-15T12:36:06.057Z,54.82
2022-12-15T12:38:41.409Z,58.92
2022-12-15T12:41:16.332Z,58.52
2022-12-15T12:46:40.648Z,54.94
2022-12-15T12:49:26.089Z,54.21
2022-12-15T12:51:57.043Z,53.04
2022-12-15T12:54:32.813Z,52.51
2022-12-15T12:56:59.909Z,54.00
2022-12-15T12:59:29.602Z,55.09
2022-12-15T13:02:31.745Z,53.71
2022-12-15T13:05:00.129Z,53.93
2022-12-15T13:07:37.984Z,53.45
2022-12-15T13:10:04.646Z,52.21
2022-12-15T13:12:51.630Z,54.14
2022-12-15T13:15:28.899Z,53.51
2022-12-15T13:18:06.527Z,54.53
2022-12-15T13:20:37.047Z,55.48
2022-12-15T13:23:35.241Z,54.32
2022-12-15T13:26:12.916Z,53.32
2022-12-15T13:28:45.570Z,55.51
2022-12-15T13:34:16.850Z,63.68
2022-12-15T13:36:54.435Z,66.18
2022-12-15T13:39:27.884Z,69.46
2022-12-15T13:44:55.369Z,73.57
2022-12-15T13:47:29.172Z,75.00
2022-12-15T13:50:12.901Z,76.36
2022-12-15T13:55:51.150Z,79.96
2022-12-15T13:58:20.228Z,81.14
2022-12-15T14:00:55.910Z,82.01
2022-12-15T14:03:23.390Z,82.32
2022-12-15T14:05:58.693Z,82.85
2022-12-15T14:08:28.968Z,83.39
2022-12-15T14:11:00.204Z,85.47
2022-12-15T14:13:35.566Z,86.47
2022-12-15T14:16:14.652Z,86.28
2022-12-15T14:18:43.334Z,86.86
2022-12-15T14:21:25.150Z,87.14
2022-12-15T14:24:19.642Z,88.50
2022-12-15T14:26:41.692Z,90.06
2022-12-15T14:29:10.647Z,90.12
2022-12-15T14:31:38.266Z,90.27
2022-12-15T14:34:32.425Z,90.67
2022-12-15T14:37:03.784Z,91.22
2022-12-15T14:39:43.219Z,92.15
2022-12-15T14:42:21.883Z,93.02
2022-12-15T14:44:50.836Z,93.55
2022-12-15T14:47:27.313Z,93.93
2022-12-15T14:49:56.762Z,94.05
2022-12-15T14:52:43.047Z,94.35
2022-12-15T14:55:21.730Z,94.85
2022-12-15T14:57:52.957Z,95.40
2022-12-15T15:00:35.707Z,95.98
2022-12-15T15:03:09.322Z,59.10
2022-12-15T15:03:10.261Z,66.76
2022-12-15T15:03:12.901Z,59.28
2022-12-15T15:03:19.725Z,96.78
2022-12-15T15:05:51.578Z,97.34
2022-12-15T15:08:45.504Z,98.23
2022-12-15T15:11:36.001Z,98.66
2022-12-15T15:14:20.612Z,99.33
2022-12-15T15:17:18.174Z,100.00
2022-12-15T15:19:52.383Z,100.00
2022-12-15T15:22:42.944Z,100.00
2022-12-15T15:25:22.323Z,100.00
2022-12-15T15:27:49.752Z,100.00
2022-12-15T15:30:39.086Z,100.00
2022-12-15T15:33:08.947Z,100.00
2022-12-15T15:35:35.547Z,100.00
2022-12-15T15:38:07.549Z,100.00
2022-12-15T15:40:34.173Z,100.00
2022-12-15T15:43:00.781Z,100.00
2022-12-15T15:45:27.739Z,100.00
2022-12-15T15:47:56.005Z,100.00
2022-12-15T15:50:29.236Z,100.00
2022-12-15T15:52:57.330Z,100.00
2022-12-15T15:55:36.236Z,100.00
2022-12-15T15:58:11.375Z,100.00
2022-12-15T16:00:38.170Z,100.00
2022-12-15T16:03:05.044Z,100.00
2022-12-15T16:05:32.173Z,100.00
2022-12-15T16:08:00.715Z,100.00
2022-12-15T16:10:28.182Z,100.00
2022-12-15T16:12:57.608Z,100.00
2022-12-15T16:15:26.642Z,100.00
2022-12-15T16:17:54.018Z,100.00
2022-12-15T16:20:23.092Z,100.00
2022-12-15T16:23:05.504Z,100.00
2022-12-15T16:25:50.978Z,100.00
2022-12-15T16:28:24.112Z,100.00
2022-12-15T16:30:51.658Z,100.00
2022-12-15T16:33:18.868Z,100.00
2022-12-15T16:35:48.354Z,100.00
2022-12-15T16:38:31.029Z,100.00
2022-12-15T16:41:06.826Z,100.00
2022-12-15T16:43:39.073Z,100.00
2022-12-15T16:46:07.271Z,100.00
2022-12-15T16:48:34.544Z,100.00
2022-12-15T16:51:02.674Z,100.00
2022-12-15T16:53:32.230Z,100.00
2022-12-15T16:56:06.128Z,100.00
2022-12-15T16:58:35.765Z,100.00
2022-12-15T17:01:02.623Z,100.00
2022-12-15T17:03:29.529Z,100.00
2022-12-15T17:05:59.441Z,100.00
2022-12-15T17:08:37.187Z,100.00
2022-12-15T17:11:04.653Z,100.00
2022-12-15T17:13:45.667Z,100.00
2022-12-15T17:16:16.115Z,100.00
2022-12-15T17:18:44.534Z,100.00
2022-12-15T17:21:18.668Z,100.00
2022-12-15T17:23:47.794Z,100.00
2022-12-15T17:26:44.646Z,100.00
2022-12-15T17:29:20.311Z,100.00
2022-12-15T17:31:47.035Z,100.00
2022-12-15T17:34:31.320Z,100.00
2022-12-15T17:37:00.957Z,100.00
2022-12-15T17:39:28.637Z,100.00
2022-12-15T17:42:01.035Z,100.00
2022-12-15T17:44:35.531Z,100.00
2022-12-15T17:47:05.786Z,100.00
2022-12-15T17:49:36.110Z,100.00
2022-12-15T17:52:16.889Z,100.00
2022-12-15T17:54:43.876Z,100.00
2022-12-15T17:57:13.050Z,100.00
2022-12-15T17:59:39.767Z,100.00
2022-12-15T18:02:06.498Z,100.00
2022-12-15T18:04:33.379Z,100.00
2022-12-15T18:07:02.321Z,100.00
2022-12-15T18:09:29.893Z,100.00
2022-12-15T18:11:58.237Z,100.00
2022-12-15T18:14:24.927Z,100.00
2022-12-15T18:16:51.601Z,100.00
2022-12-15T18:19:18.414Z,100.00
2022-12-15T18:21:45.107Z,100.00
2022-12-15T18:24:13.816Z,100.00
2022-12-15T18:26:40.607Z,100.00
2022-12-15T18:29:18.068Z,100.00
2022-12-15T18:31:47.007Z,100.00
2022-12-15T18:34:18.253Z,100.00
2022-12-15T18:36:45.182Z,100.00
2022-12-15T18:39:20.495Z,100.00
2022-12-15T18:41:48.786Z,100.00
2022-12-15T18:44:27.321Z,100.00
2022-12-15T18:46:55.073Z,100.00
2022-12-15T18:49:23.316Z,100.00
2022-12-15T18:51:50.595Z,100.00
2022-12-15T18:54:20.957Z,100.00
2022-12-15T18:56:48.129Z,100.00
2022-12-15T18:59:17.080Z,100.00
2022-12-15T19:01:45.791Z,100.00
2022-12-15T19:04:13.264Z,100.00
2022-12-15T19:06:43.009Z,100.00
2022-12-15T19:09:17.371Z,100.00
2022-12-15T19:12:06.090Z,100.00
2022-12-15T19:14:41.713Z,100.00
2022-12-15T19:17:45.496Z,100.00
2022-12-15T19:20:38.442Z,100.00
2022-12-15T19:23:05.759Z,100.00
2022-12-15T19:25:33.354Z,100.00
2022-12-15T19:28:00.884Z,100.00
2022-12-15T19:30:31.000Z,100.00
2022-12-15T19:32:59.183Z,100.00
2022-12-15T19:35:27.642Z,100.00
2022-12-15T19:37:56.913Z,100.00
2022-12-15T19:40:31.177Z,100.00
2022-12-15T19:43:00.901Z,100.00
2022-12-15T19:45:30.032Z,100.00
2022-12-15T19:47:57.231Z,100.00
2022-12-15T19:50:31.076Z,100.00
2022-12-15T19:53:05.243Z,100.00
2022-12-15T19:55:34.134Z,100.00
2022-12-15T19:58:06.549Z,100.00
2022-12-15T20:00:33.267Z,100.00
2022-12-15T20:03:00.146Z,100.00
2022-12-15T20:05:27.019Z,100.00
2022-12-15T20:07:54.852Z,100.00
2022-12-15T20:10:29.344Z,100.00
2022-12-15T20:12:59.019Z,100.00
2022-12-15T20:15:26.323Z,100.00
2022-12-15T20:17:57.476Z,100.00
2022-12-15T20:20:26.995Z,100.00
2022-12-15T20:22:56.502Z,100.00
2022-12-15T20:25:28.112Z,100.00
2022-12-15T20:27:55.271Z,100.00
2022-12-15T20:30:25.517Z,100.00
2022-12-15T20:32:52.728Z,100.00
2022-12-15T20:35:21.890Z,100.00
2022-12-15T20:37:49.225Z,100.00
2022-12-15T20:40:25.903Z,100.00
2022-12-15T20:42:54.246Z,100.00
2022-12-15T20:45:24.537Z,100.00
2022-12-15T20:47:53.279Z,100.00
2022-12-15T20:50:26.877Z,100.00
2022-12-15T20:52:55.136Z,100.00
2022-12-15T20:55:22.100Z,100.00
2022-12-15T20:57:49.113Z,100.00
2022-12-15T21:00:18.097Z,100.00
2022-12-15T21:02:46.293Z,100.00
2022-12-15T21:05:22.335Z,100.00
2022-12-15T21:07:49.750Z,100.00
2022-12-15T21:10:19.825Z,100.00
2022-12-15T21:12:48.509Z,100.00
2022-12-15T21:15:21.800Z,100.00
2022-12-15T21:18:17.020Z,100.00
2022-12-15T21:20:42.475Z,100.00
2022-12-15T21:23:41.073Z,100.00
2022-12-15T21:26:11.441Z,100.00
2022-12-15T21:28:38.136Z,100.00
2022-12-15T21:31:04.943Z,100.00
2022-12-15T21:33:32.483Z,100.00
2022-12-15T21:36:00.194Z,100.00
2022-12-15T21:38:29.688Z,100.00
2022-12-15T21:40:59.929Z,100.00
2022-12-15T21:43:29.704Z,100.00
2022-12-15T21:45:56.994Z,100.00
2022-12-15T21:48:43.279Z,100.00
2022-12-15T21:51:16.314Z,100.00
2022-12-15T21:53:44.869Z,100.00
2022-12-15T21:56:19.062Z,100.00
2022-12-15T21:58:49.089Z,100.00
2022-12-15T22:01:20.079Z,100.00
2022-12-15T22:03:54.744Z,100.00
2022-12-15T22:06:24.886Z,100.00
2022-12-15T22:08:58.758Z,100.00
2022-12-15T22:11:28.096Z,100.00
2022-12-15T22:13:57.185Z,100.00
2022-12-15T22:16:24.576Z,100.00
2022-12-15T22:18:54.821Z,100.00
2022-12-15T22:21:23.171Z,100.00
2022-12-15T22:23:50.950Z,100.00
2022-12-15T22:26:37.485Z,100.00
2022-12-15T22:29:21.536Z,100.00
2022-12-15T22:31:52.334Z,100.00
2022-12-15T22:34:21.094Z,100.00
2022-12-15T22:36:48.619Z,100.00
2022-12-15T22:39:15.341Z,100.00
2022-12-15T22:41:48.294Z,100.00
2022-12-15T22:44:26.706Z,100.00
2022-12-15T22:46:59.569Z,100.00
2022-12-15T22:49:34.531Z,100.00
2022-12-15T22:52:01.209Z,100.00
2022-12-15T22:54:29.695Z,100.00
2022-12-15T22:57:04.071Z,100.00
2022-12-15T22:59:41.357Z,100.00
2022-12-15T23:02:09.286Z,100.00
2022-12-15T23:04:36.570Z,100.00
2022-12-15T23:07:07.595Z,100.00
2022-12-15T23:09:35.257Z,100.00
2022-12-15T23:12:01.952Z,100.00
2022-12-15T23:14:46.777Z,100.00
2022-12-15T23:17:13.868Z,100.00
2022-12-15T23:19:49.803Z,100.00
2022-12-15T23:22:16.444Z,100.00
2022-12-15T23:24:43.574Z,100.00
2022-12-15T23:27:11.506Z,100.00
2022-12-15T23:29:38.138Z,100.00
2022-12-15T23:32:06.390Z,100.00
2022-12-15T23:34:33.263Z,100.00
2022-12-15T23:36:59.922Z,100.00
2022-12-15T23:39:26.544Z,100.00
2022-12-15T23:41:54.342Z,100.00
2022-12-15T23:44:21.424Z,100.00
2022-12-15T23:46:49.267Z,100.00
2022-12-15T23:49:15.977Z,100.00
2022-12-15T23:51:42.740Z,100.00
2022-12-15T23:54:10.184Z,100.00
2022-12-15T23:56:39.339Z,100.00
2022-12-15T23:59:06.322Z,100.00
